PST,Max TemperatureF,Mean TemperatureF,Min TemperatureF,Max Dew PointF,MeanDew PointF,Min DewpointF,Max Humidity, Mean Humidity, Min Humidity, Max Sea Level PressureIn, Mean Sea Level PressureIn, Min Sea Level PressureIn, Max VisibilityMiles, Mean VisibilityMiles, Min VisibilityMiles, Max Wind SpeedMPH, Mean Wind SpeedMPH, Max Gust SpeedMPH,PrecipitationIn, CloudCover, Events, WindDirDegrees
2012-11-1,68,62,55,55,52,46,100,74,48,30.08,30.01,29.97,10,10,8,6,1,9,0.00,5,,172
2012-11-2,65,55,45,52,48,44,100,78,56,30.11,30.07,30.02,10,10,10,4,0,,0.00,5,,39
2012-11-3,77,64,50,55,52,47,96,71,46,30.17,30.12,30.07,10,10,10,10,0,13,0.00,2,,340
2012-11-4,80,64,47,58,53,46,96,69,42,30.25,30.18,30.14,10,10,10,6,0,7,0.00,0,,295
2012-11-5,85,66,47,55,52,46,100,67,34,30.19,30.11,30.04,10,10,7,6,0,7,0.00,0,,280
2012-11-6,83,65,47,54,49,45,100,66,31,30.11,30.05,29.99,10,10,10,8,1,10,0.01,0,,245
2012-11-7,74,59,44,52,47,42,93,69,44,30.06,29.98,29.91,10,10,10,8,2,14,0.00,0,,348
2012-11-8,51,45,39,43,40,38,96,79,61,29.92,29.89,29.87,10,8,1,18,3,25,0.35,5,Rain,310
2012-11-9,52,45,38,42,38,36,100,80,59,29.99,29.93,29.90,10,10,7,14,2,17,0.02,6,Rain,352
2012-11-10,56,44,32,38,34,30,100,72,43,30.27,30.10,30.00,10,8,0,13,2,17,0.00,2,Fog,315
2012-11-11,59,45,31,38,34,30,100,70,40,30.39,30.34,30.28,10,10,2,5,0,8,0.00,1,,-1
2012-11-12,64,51,37,45,40,35,93,66,39,30.40,30.33,30.26,10,10,10,6,0,10,T,4,,289
2012-11-13,65,56,46,53,49,45,93,78,63,30.27,30.19,30.12,10,10,7,8,1,9,T,5,Rain,343
2012-11-14,73,58,43,50,46,41,100,72,44,30.16,30.11,30.02,10,7,0,7,0,8,0.00,2,Fog,290
2012-11-15,68,54,40,48,44,39,96,71,45,30.04,30.00,29.93,10,8,1,14,3,23,0.00,0,,168
2012-11-16,58,56,53,54,51,47,93,83,72,29.99,29.92,29.83,10,7,2,14,3,18,0.56,7,Rain,160
2012-11-17,62,53,44,55,52,42,100,82,64,30.01,29.84,29.77,10,7,2,16,3,20,0.87,7,Rain,153
2012-11-18,50,45,39,47,41,37,100,87,74,30.15,30.09,30.02,10,8,0,10,1,20,0.05,7,Fog-Rain,310
2012-11-19,56,53,50,54,51,46,93,85,77,30.19,30.14,30.09,10,7,2,14,8,22,0.09,8,Rain,156
2012-11-20,60,56,51,57,55,50,100,90,80,30.08,30.00,29.92,10,5,1,14,8,21,1.32,8,Rain,153
2012-11-21,60,51,41,52,48,40,100,77,53,30.25,30.10,30.01,10,8,2,12,3,15,0.09,5,Rain,228
2012-11-22,62,49,35,47,39,34,93,72,51,30.30,30.25,30.19,10,9,1,7,0,8,0.00,0,,280
2012-11-23,67,51,35,48,40,35,100,72,44,30.31,30.25,30.18,10,9,2,5,0,6,0.00,1,,250
2012-11-24,69,52,34,51,42,33,100,71,42,30.24,30.15,30.07,10,9,5,8,1,10,0.00,0,,309
2012-11-25,67,52,37,49,42,37,100,74,48,30.08,30.02,29.93,10,6,0,5,0,9,0.00,3,Fog,270
2012-11-26,66,53,40,50,44,39,100,76,52,30.07,30.03,29.98,10,4,0,9,1,12,0.01,3,Fog,223
2012-11-27,58,50,42,48,46,41,96,82,67,30.08,30.03,29.94,10,8,0,16,7,25,0.00,7,Fog,162
2012-11-28,59,56,52,54,51,45,100,81,62,29.99,29.87,29.76,10,7,2,18,8,29,1.31,7,Rain,159
2012-11-29,60,57,54,56,54,51,93,90,86,29.97,29.84,29.70,10,5,2,22,11,30,2.48,8,Rain,156
2012-11-30,61,58,55,57,54,52,93,87,80,29.93,29.82,29.71,10,9,2,17,6,29,0.68,8,Rain,154